sensor_id;sensor_type;location;lat;lon;timestamp;temperature;humidity
20171;DHT22;10245;51.344;6.620;2022-09-03T00:00:27;20.90;50.90
20171;DHT22;10245;51.344;6.620;2022-09-03T00:02:59;21.00;49.10
20171;DHT22;10245;51.344;6.620;2022-09-03T00:05:34;20.90;48.60
20171;DHT22;10245;51.344;6.620;2022-09-03T00:08:04;20.80;51.40
20171;DHT22;10245;51.344;6.620;2022-09-03T00:10:35;20.80;51.20
20171;DHT22;10245;51.344;6.620;2022-09-03T00:13:06;20.70;50.80
20171;DHT22;10245;51.344;6.620;2022-09-03T00:15:33;20.60;50.40
20171;DHT22;10245;51.344;6.620;2022-09-03T00:18:03;20.50;51.60
20171;DHT22;10245;51.344;6.620;2022-09-03T00:20:33;20.50;51.90
20171;DHT22;10245;51.344;6.620;2022-09-03T00:23:04;20.50;51.60
20171;DHT22;10245;51.344;6.620;2022-09-03T00:25:38;20.30;50.50
20171;DHT22;10245;51.344;6.620;2022-09-03T00:28:12;20.20;51.50
20171;DHT22;10245;51.344;6.620;2022-09-03T00:30:41;20.30;52.00
20171;DHT22;10245;51.344;6.620;2022-09-03T00:33:11;20.30;51.50
20171;DHT22;10245;51.344;6.620;2022-09-03T00:35:45;20.10;53.30
20171;DHT22;10245;51.344;6.620;2022-09-03T00:38:12;20.10;52.40
20171;DHT22;10245;51.344;6.620;2022-09-03T00:40:53;20.10;54.40
20171;DHT22;10245;51.344;6.620;2022-09-03T00:43:42;20.00;53.10
20171;DHT22;10245;51.344;6.620;2022-09-03T00:46:18;19.90;53.90
20171;DHT22;10245;51.344;6.620;2022-09-03T00:48:59;20.00;53.40
20171;DHT22;10245;51.344;6.620;2022-09-03T00:51:37;20.00;53.80
20171;DHT22;10245;51.344;6.620;2022-09-03T00:54:09;19.80;54.40
20171;DHT22;10245;51.344;6.620;2022-09-03T00:56:45;19.80;54.00
20171;DHT22;10245;51.344;6.620;2022-09-03T00:59:30;19.80;54.30
20171;DHT22;10245;51.344;6.620;2022-09-03T01:02:06;19.80;53.80
20171;DHT22;10245;51.344;6.620;2022-09-03T01:04:47;19.90;52.50
20171;DHT22;10245;51.344;6.620;2022-09-03T01:07:27;19.90;52.40
20171;DHT22;10245;51.344;6.620;2022-09-03T01:10:03;20.00;52.10
20171;DHT22;10245;51.344;6.620;2022-09-03T01:12:40;20.00;51.60
20171;DHT22;10245;51.344;6.620;2022-09-03T01:15:11;19.90;54.00
20171;DHT22;10245;51.344;6.620;2022-09-03T01:17:52;19.90;53.50
20171;DHT22;10245;51.344;6.620;2022-09-03T01:20:36;19.90;53.40
20171;DHT22;10245;51.344;6.620;2022-09-03T01:23:32;20.00;52.80
20171;DHT22;10245;51.344;6.620;2022-09-03T01:26:43;19.80;53.60
20171;DHT22;10245;51.344;6.620;2022-09-03T01:29:21;19.90;53.50
20171;DHT22;10245;51.344;6.620;2022-09-03T01:31:55;19.80;55.10
20171;DHT22;10245;51.344;6.620;2022-09-03T01:34:30;19.70;51.80
20171;DHT22;10245;51.344;6.620;2022-09-03T01:37:06;19.70;51.20
20171;DHT22;10245;51.344;6.620;2022-09-03T01:39:43;19.90;53.00
20171;DHT22;10245;51.344;6.620;2022-09-03T01:42:19;20.00;52.20
20171;DHT22;10245;51.344;6.620;2022-09-03T01:45:02;19.90;51.70
20171;DHT22;10245;51.344;6.620;2022-09-03T01:47:53;20.00;52.70
20171;DHT22;10245;51.344;6.620;2022-09-03T01:50:41;20.00;51.80
20171;DHT22;10245;51.344;6.620;2022-09-03T01:53:12;19.80;52.30
20171;DHT22;10245;51.344;6.620;2022-09-03T01:55:53;19.70;52.10
20171;DHT22;10245;51.344;6.620;2022-09-03T01:58:34;19.80;52.50
20171;DHT22;10245;51.344;6.620;2022-09-03T02:01:08;19.70;54.10
20171;DHT22;10245;51.344;6.620;2022-09-03T02:03:40;19.60;53.00
20171;DHT22;10245;51.344;6.620;2022-09-03T02:06:07;19.40;52.60
20171;DHT22;10245;51.344;6.620;2022-09-03T02:08:31;19.50;53.40
20171;DHT22;10245;51.344;6.620;2022-09-03T02:10:56;19.50;53.10
20171;DHT22;10245;51.344;6.620;2022-09-03T02:13:25;19.30;53.90
20171;DHT22;10245;51.344;6.620;2022-09-03T02:15:52;19.40;54.20
20171;DHT22;10245;51.344;6.620;2022-09-03T02:18:19;19.30;54.40
20171;DHT22;10245;51.344;6.620;2022-09-03T02:20:46;19.10;54.60
20171;DHT22;10245;51.344;6.620;2022-09-03T02:23:10;19.10;54.70
20171;DHT22;10245;51.344;6.620;2022-09-03T02:25:37;19.10;54.60
20171;DHT22;10245;51.344;6.620;2022-09-03T02:28:04;19.00;57.80
20171;DHT22;10245;51.344;6.620;2022-09-03T02:30:38;19.00;55.70
20171;DHT22;10245;51.344;6.620;2022-09-03T02:33:02;19.00;55.40
20171;DHT22;10245;51.344;6.620;2022-09-03T02:35:27;18.90;57.20
20171;DHT22;10245;51.344;6.620;2022-09-03T02:37:51;19.10;56.60
20171;DHT22;10245;51.344;6.620;2022-09-03T02:40:15;19.00;56.60
20171;DHT22;10245;51.344;6.620;2022-09-03T02:42:39;19.00;56.60
20171;DHT22;10245;51.344;6.620;2022-09-03T02:45:13;18.90;58.60
20171;DHT22;10245;51.344;6.620;2022-09-03T02:47:43;18.90;57.40
20171;DHT22;10245;51.344;6.620;2022-09-03T02:50:10;18.90;60.10
20171;DHT22;10245;51.344;6.620;2022-09-03T02:52:35;18.90;59.30
20171;DHT22;10245;51.344;6.620;2022-09-03T02:54:59;18.80;57.90
20171;DHT22;10245;51.344;6.620;2022-09-03T02:57:23;18.80;60.90
20171;DHT22;10245;51.344;6.620;2022-09-03T02:59:48;18.70;61.00
20171;DHT22;10245;51.344;6.620;2022-09-03T03:02:12;18.60;61.30
20171;DHT22;10245;51.344;6.620;2022-09-03T03:04:37;18.50;60.50
20171;DHT22;10245;51.344;6.620;2022-09-03T03:07:01;18.50;58.60
20171;DHT22;10245;51.344;6.620;2022-09-03T03:09:26;18.60;61.50
20171;DHT22;10245;51.344;6.620;2022-09-03T03:11:50;18.60;62.80
20171;DHT22;10245;51.344;6.620;2022-09-03T03:14:16;18.60;61.20
20171;DHT22;10245;51.344;6.620;2022-09-03T03:16:40;18.60;60.90
20171;DHT22;10245;51.344;6.620;2022-09-03T03:19:04;18.60;60.90
20171;DHT22;10245;51.344;6.620;2022-09-03T03:21:28;18.50;60.50
20171;DHT22;10245;51.344;6.620;2022-09-03T03:23:53;18.50;60.10
20171;DHT22;10245;51.344;6.620;2022-09-03T03:26:19;18.50;60.40
20171;DHT22;10245;51.344;6.620;2022-09-03T03:28:44;18.50;62.80
20171;DHT22;10245;51.344;6.620;2022-09-03T03:31:11;18.40;59.90
20171;DHT22;10245;51.344;6.620;2022-09-03T03:33:36;18.50;59.40
20171;DHT22;10245;51.344;6.620;2022-09-03T03:36:04;18.50;59.60
20171;DHT22;10245;51.344;6.620;2022-09-03T03:38:29;18.40;59.10
20171;DHT22;10245;51.344;6.620;2022-09-03T03:40:53;18.30;58.70
20171;DHT22;10245;51.344;6.620;2022-09-03T03:43:18;18.30;59.20
20171;DHT22;10245;51.344;6.620;2022-09-03T03:45:42;18.30;58.60
20171;DHT22;10245;51.344;6.620;2022-09-03T03:48:07;18.40;59.70
20171;DHT22;10245;51.344;6.620;2022-09-03T03:50:31;18.30;61.30
20171;DHT22;10245;51.344;6.620;2022-09-03T03:52:58;18.30;61.40
20171;DHT22;10245;51.344;6.620;2022-09-03T03:55:23;18.20;61.30
20171;DHT22;10245;51.344;6.620;2022-09-03T03:57:48;18.20;63.60
20171;DHT22;10245;51.344;6.620;2022-09-03T04:00:15;18.20;62.10
20171;DHT22;10245;51.344;6.620;2022-09-03T04:02:39;18.00;64.90
20171;DHT22;10245;51.344;6.620;2022-09-03T04:05:03;18.10;65.50
20171;DHT22;10245;51.344;6.620;2022-09-03T04:07:29;18.00;64.40
20171;DHT22;10245;51.344;6.620;2022-09-03T04:09:55;18.00;65.60
20171;DHT22;10245;51.344;6.620;2022-09-03T04:12:18;18.10;65.20
20171;DHT22;10245;51.344;6.620;2022-09-03T04:14:43;17.90;65.70
20171;DHT22;10245;51.344;6.620;2022-09-03T04:17:09;17.90;66.80
20171;DHT22;10245;51.344;6.620;2022-09-03T04:19:34;17.90;65.00
20171;DHT22;10245;51.344;6.620;2022-09-03T04:22:03;17.90;65.60
20171;DHT22;10245;51.344;6.620;2022-09-03T04:24:27;17.90;65.40
20171;DHT22;10245;51.344;6.620;2022-09-03T04:26:52;17.80;65.30
20171;DHT22;10245;51.344;6.620;2022-09-03T04:29:17;17.70;66.80
20171;DHT22;10245;51.344;6.620;2022-09-03T04:31:43;17.80;66.80
20171;DHT22;10245;51.344;6.620;2022-09-03T04:34:23;17.60;66.30
20171;DHT22;10245;51.344;6.620;2022-09-03T04:36:47;17.60;67.00
20171;DHT22;10245;51.344;6.620;2022-09-03T04:39:14;17.50;66.40
20171;DHT22;10245;51.344;6.620;2022-09-03T04:41:40;17.70;66.20
20171;DHT22;10245;51.344;6.620;2022-09-03T04:44:07;17.60;66.40
20171;DHT22;10245;51.344;6.620;2022-09-03T04:46:36;17.50;66.70
20171;DHT22;10245;51.344;6.620;2022-09-03T04:49:03;17.50;66.60
20171;DHT22;10245;51.344;6.620;2022-09-03T04:51:37;17.50;66.20
20171;DHT22;10245;51.344;6.620;2022-09-03T04:54:03;17.60;66.70
20171;DHT22;10245;51.344;6.620;2022-09-03T04:56:30;17.60;68.20
20171;DHT22;10245;51.344;6.620;2022-09-03T04:58:59;17.60;68.10
20171;DHT22;10245;51.344;6.620;2022-09-03T05:01:29;17.50;66.70
20171;DHT22;10245;51.344;6.620;2022-09-03T05:03:56;17.70;67.60
20171;DHT22;10245;51.344;6.620;2022-09-03T05:06:21;17.60;67.70
20171;DHT22;10245;51.344;6.620;2022-09-03T05:08:49;17.50;68.80
20171;DHT22;10245;51.344;6.620;2022-09-03T05:11:17;17.40;68.60
20171;DHT22;10245;51.344;6.620;2022-09-03T05:13:45;17.60;67.20
20171;DHT22;10245;51.344;6.620;2022-09-03T05:16:16;17.50;69.90
20171;DHT22;10245;51.344;6.620;2022-09-03T05:18:41;17.50;67.30
20171;DHT22;10245;51.344;6.620;2022-09-03T05:21:11;17.60;69.30
20171;DHT22;10245;51.344;6.620;2022-09-03T05:23:43;17.50;69.60
20171;DHT22;10245;51.344;6.620;2022-09-03T05:26:16;17.50;68.60
20171;DHT22;10245;51.344;6.620;2022-09-03T05:28:42;17.70;69.40
20171;DHT22;10245;51.344;6.620;2022-09-03T05:31:07;17.60;68.90
20171;DHT22;10245;51.344;6.620;2022-09-03T05:33:33;17.70;69.80
20171;DHT22;10245;51.344;6.620;2022-09-03T05:36:00;17.70;68.00
20171;DHT22;10245;51.344;6.620;2022-09-03T05:38:25;17.90;66.20
20171;DHT22;10245;51.344;6.620;2022-09-03T05:40:48;18.00;67.10
20171;DHT22;10245;51.344;6.620;2022-09-03T05:43:14;18.10;69.00
20171;DHT22;10245;51.344;6.620;2022-09-03T05:45:38;18.40;62.20
20171;DHT22;10245;51.344;6.620;2022-09-03T05:48:03;18.40;67.40
20171;DHT22;10245;51.344;6.620;2022-09-03T05:50:27;18.40;66.20
20171;DHT22;10245;51.344;6.620;2022-09-03T05:52:51;18.30;66.60
20171;DHT22;10245;51.344;6.620;2022-09-03T05:55:14;18.30;68.00
20171;DHT22;10245;51.344;6.620;2022-09-03T05:57:40;18.40;66.10
20171;DHT22;10245;51.344;6.620;2022-09-03T06:00:07;18.40;65.90
20171;DHT22;10245;51.344;6.620;2022-09-03T06:02:35;18.40;64.50
20171;DHT22;10245;51.344;6.620;2022-09-03T06:04:59;18.60;65.30
20171;DHT22;10245;51.344;6.620;2022-09-03T06:07:24;18.60;64.20
20171;DHT22;10245;51.344;6.620;2022-09-03T06:09:48;18.70;64.50
20171;DHT22;10245;51.344;6.620;2022-09-03T06:12:11;18.80;62.20
20171;DHT22;10245;51.344;6.620;2022-09-03T06:14:35;18.90;62.30
20171;DHT22;10245;51.344;6.620;2022-09-03T06:17:00;18.90;60.00
20171;DHT22;10245;51.344;6.620;2022-09-03T06:19:25;18.90;60.80
20171;DHT22;10245;51.344;6.620;2022-09-03T06:21:48;18.80;61.10
20171;DHT22;10245;51.344;6.620;2022-09-03T06:24:13;18.90;61.10
20171;DHT22;10245;51.344;6.620;2022-09-03T06:26:40;18.90;60.20
20171;DHT22;10245;51.344;6.620;2022-09-03T06:29:05;19.00;58.90
20171;DHT22;10245;51.344;6.620;2022-09-03T06:31:29;19.20;57.60
20171;DHT22;10245;51.344;6.620;2022-09-03T06:33:55;19.20;58.90
20171;DHT22;10245;51.344;6.620;2022-09-03T06:36:25;19.20;59.10
20171;DHT22;10245;51.344;6.620;2022-09-03T06:38:51;19.50;59.30
20171;DHT22;10245;51.344;6.620;2022-09-03T06:41:18;19.40;59.50
20171;DHT22;10245;51.344;6.620;2022-09-03T06:43:47;19.40;59.10
20171;DHT22;10245;51.344;6.620;2022-09-03T06:46:12;19.50;58.30
20171;DHT22;10245;51.344;6.620;2022-09-03T06:48:38;19.80;58.60
20171;DHT22;10245;51.344;6.620;2022-09-03T06:51:05;19.80;57.20
20171;DHT22;10245;51.344;6.620;2022-09-03T06:53:31;19.90;58.20
20171;DHT22;10245;51.344;6.620;2022-09-03T06:55:58;20.00;57.10
20171;DHT22;10245;51.344;6.620;2022-09-03T06:58:23;20.20;57.20
20171;DHT22;10245;51.344;6.620;2022-09-03T07:00:47;20.10;56.30
20171;DHT22;10245;51.344;6.620;2022-09-03T07:03:13;20.40;57.30
20171;DHT22;10245;51.344;6.620;2022-09-03T07:05:37;20.40;56.70
20171;DHT22;10245;51.344;6.620;2022-09-03T07:08:06;20.40;56.10
20171;DHT22;10245;51.344;6.620;2022-09-03T07:10:32;20.50;56.40
20171;DHT22;10245;51.344;6.620;2022-09-03T07:12:58;20.50;57.30
20171;DHT22;10245;51.344;6.620;2022-09-03T07:15:22;20.90;54.20
20171;DHT22;10245;51.344;6.620;2022-09-03T07:17:49;20.80;55.40
20171;DHT22;10245;51.344;6.620;2022-09-03T07:20:14;20.90;54.20
20171;DHT22;10245;51.344;6.620;2022-09-03T07:22:39;20.90;53.90
20171;DHT22;10245;51.344;6.620;2022-09-03T07:25:05;21.10;53.40
20171;DHT22;10245;51.344;6.620;2022-09-03T07:27:29;21.10;53.30
20171;DHT22;10245;51.344;6.620;2022-09-03T07:29:53;21.20;54.00
20171;DHT22;10245;51.344;6.620;2022-09-03T07:32:17;21.40;53.80
20171;DHT22;10245;51.344;6.620;2022-09-03T07:34:40;21.40;53.60
20171;DHT22;10245;51.344;6.620;2022-09-03T07:37:05;21.60;53.80
20171;DHT22;10245;51.344;6.620;2022-09-03T07:39:34;21.50;53.70
20171;DHT22;10245;51.344;6.620;2022-09-03T07:42:00;21.60;52.90
20171;DHT22;10245;51.344;6.620;2022-09-03T07:44:23;21.60;53.10
20171;DHT22;10245;51.344;6.620;2022-09-03T07:46:49;21.50;53.20
20171;DHT22;10245;51.344;6.620;2022-09-03T07:49:13;21.70;52.70
20171;DHT22;10245;51.344;6.620;2022-09-03T07:51:38;21.80;53.00
20171;DHT22;10245;51.344;6.620;2022-09-03T07:54:04;21.70;52.40
20171;DHT22;10245;51.344;6.620;2022-09-03T07:56:31;21.60;53.70
20171;DHT22;10245;51.344;6.620;2022-09-03T07:58:57;21.80;53.10
20171;DHT22;10245;51.344;6.620;2022-09-03T08:01:22;21.80;51.70
20171;DHT22;10245;51.344;6.620;2022-09-03T08:03:49;21.90;51.80
20171;DHT22;10245;51.344;6.620;2022-09-03T08:06:16;21.90;51.80
20171;DHT22;10245;51.344;6.620;2022-09-03T08:08:40;21.90;51.60
20171;DHT22;10245;51.344;6.620;2022-09-03T08:11:08;21.90;51.30
20171;DHT22;10245;51.344;6.620;2022-09-03T08:13:32;22.10;51.80
20171;DHT22;10245;51.344;6.620;2022-09-03T08:15:57;22.30;52.10
20171;DHT22;10245;51.344;6.620;2022-09-03T08:18:22;22.30;50.90
20171;DHT22;10245;51.344;6.620;2022-09-03T08:20:46;22.20;50.80
20171;DHT22;10245;51.344;6.620;2022-09-03T08:23:09;22.20;51.10
20171;DHT22;10245;51.344;6.620;2022-09-03T08:25:36;22.20;51.30
20171;DHT22;10245;51.344;6.620;2022-09-03T08:28:00;22.40;51.70
20171;DHT22;10245;51.344;6.620;2022-09-03T08:30:31;22.30;51.00
20171;DHT22;10245;51.344;6.620;2022-09-03T08:33:40;22.30;51.80
20171;DHT22;10245;51.344;6.620;2022-09-03T08:36:23;22.40;51.40
20171;DHT22;10245;51.344;6.620;2022-09-03T08:38:48;22.70;50.40
20171;DHT22;10245;51.344;6.620;2022-09-03T08:41:18;22.60;51.40
20171;DHT22;10245;51.344;6.620;2022-09-03T08:44:02;22.70;50.50
20171;DHT22;10245;51.344;6.620;2022-09-03T08:46:45;22.70;50.70
20171;DHT22;10245;51.344;6.620;2022-09-03T08:49:19;22.70;50.50
20171;DHT22;10245;51.344;6.620;2022-09-03T08:51:46;22.70;51.30
20171;DHT22;10245;51.344;6.620;2022-09-03T08:54:12;22.80;51.00
20171;DHT22;10245;51.344;6.620;2022-09-03T08:56:38;23.00;49.60
20171;DHT22;10245;51.344;6.620;2022-09-03T08:59:03;23.10;51.60
20171;DHT22;10245;51.344;6.620;2022-09-03T09:01:35;23.10;51.20
20171;DHT22;10245;51.344;6.620;2022-09-03T09:04:14;23.00;50.80
20171;DHT22;10245;51.344;6.620;2022-09-03T09:06:51;23.00;50.80
20171;DHT22;10245;51.344;6.620;2022-09-03T09:09:23;23.00;50.20
20171;DHT22;10245;51.344;6.620;2022-09-03T09:12:03;23.00;51.50
20171;DHT22;10245;51.344;6.620;2022-09-03T09:14:40;22.90;51.60
20171;DHT22;10245;51.344;6.620;2022-09-03T09:17:24;23.10;51.20
20171;DHT22;10245;51.344;6.620;2022-09-03T09:20:05;22.90;51.10
20171;DHT22;10245;51.344;6.620;2022-09-03T09:22:34;22.90;52.50
20171;DHT22;10245;51.344;6.620;2022-09-03T09:25:05;22.90;51.30
20171;DHT22;10245;51.344;6.620;2022-09-03T09:27:34;23.00;52.00
20171;DHT22;10245;51.344;6.620;2022-09-03T09:29:58;23.10;52.00
20171;DHT22;10245;51.344;6.620;2022-09-03T09:32:24;23.50;51.40
20171;DHT22;10245;51.344;6.620;2022-09-03T09:34:47;23.40;51.00
20171;DHT22;10245;51.344;6.620;2022-09-03T09:37:15;23.50;51.50
20171;DHT22;10245;51.344;6.620;2022-09-03T09:39:53;23.60;49.40
20171;DHT22;10245;51.344;6.620;2022-09-03T09:42:21;23.70;49.10
20171;DHT22;10245;51.344;6.620;2022-09-03T09:44:45;23.70;49.30
20171;DHT22;10245;51.344;6.620;2022-09-03T09:47:12;23.50;51.20
20171;DHT22;10245;51.344;6.620;2022-09-03T09:49:50;23.50;51.00
20171;DHT22;10245;51.344;6.620;2022-09-03T09:52:20;23.60;52.00
20171;DHT22;10245;51.344;6.620;2022-09-03T09:54:46;23.60;51.20
20171;DHT22;10245;51.344;6.620;2022-09-03T09:57:20;23.60;52.10
20171;DHT22;10245;51.344;6.620;2022-09-03T09:59:45;23.70;50.50
20171;DHT22;10245;51.344;6.620;2022-09-03T10:02:12;23.80;51.10
20171;DHT22;10245;51.344;6.620;2022-09-03T10:04:43;23.80;50.40
20171;DHT22;10245;51.344;6.620;2022-09-03T10:07:28;23.90;50.10
20171;DHT22;10245;51.344;6.620;2022-09-03T10:10:00;23.90;51.60
20171;DHT22;10245;51.344;6.620;2022-09-03T10:12:30;23.80;51.60
20171;DHT22;10245;51.344;6.620;2022-09-03T10:14:59;23.90;51.10
20171;DHT22;10245;51.344;6.620;2022-09-03T10:17:28;24.10;50.30
20171;DHT22;10245;51.344;6.620;2022-09-03T10:20:03;24.20;51.00
20171;DHT22;10245;51.344;6.620;2022-09-03T10:22:52;24.20;51.30
20171;DHT22;10245;51.344;6.620;2022-09-03T10:25:24;24.20;51.70
20171;DHT22;10245;51.344;6.620;2022-09-03T10:27:50;24.10;51.40
20171;DHT22;10245;51.344;6.620;2022-09-03T10:30:24;24.10;51.60
20171;DHT22;10245;51.344;6.620;2022-09-03T10:33:33;24.00;51.70
20171;DHT22;10245;51.344;6.620;2022-09-03T10:36:36;24.00;53.50
20171;DHT22;10245;51.344;6.620;2022-09-03T10:39:12;24.30;52.50
20171;DHT22;10245;51.344;6.620;2022-09-03T10:41:46;24.30;52.70
20171;DHT22;10245;51.344;6.620;2022-09-03T10:44:32;24.30;52.50
20171;DHT22;10245;51.344;6.620;2022-09-03T10:47:31;24.30;52.20
20171;DHT22;10245;51.344;6.620;2022-09-03T10:50:12;24.20;51.70
20171;DHT22;10245;51.344;6.620;2022-09-03T10:52:48;24.20;51.70
20171;DHT22;10245;51.344;6.620;2022-09-03T10:55:36;24.20;52.20
20171;DHT22;10245;51.344;6.620;2022-09-03T10:58:15;24.30;52.40
20171;DHT22;10245;51.344;6.620;2022-09-03T11:00:53;24.30;51.40
20171;DHT22;10245;51.344;6.620;2022-09-03T11:03:40;24.40;52.80
20171;DHT22;10245;51.344;6.620;2022-09-03T11:06:10;24.30;52.10
20171;DHT22;10245;51.344;6.620;2022-09-03T11:08:41;24.20;52.30
20171;DHT22;10245;51.344;6.620;2022-09-03T11:11:13;24.40;53.50
20171;DHT22;10245;51.344;6.620;2022-09-03T11:13:43;24.50;53.50
20171;DHT22;10245;51.344;6.620;2022-09-03T11:16:14;24.50;53.50
20171;DHT22;10245;51.344;6.620;2022-09-03T11:18:43;24.50;52.00
20171;DHT22;10245;51.344;6.620;2022-09-03T11:21:12;24.60;53.60
20171;DHT22;10245;51.344;6.620;2022-09-03T11:23:41;24.70;53.50
20171;DHT22;10245;51.344;6.620;2022-09-03T11:26:10;24.60;53.70
20171;DHT22;10245;51.344;6.620;2022-09-03T11:28:40;24.40;53.80
20171;DHT22;10245;51.344;6.620;2022-09-03T11:31:23;24.40;53.70
20171;DHT22;10245;51.344;6.620;2022-09-03T11:33:55;24.60;53.40
20171;DHT22;10245;51.344;6.620;2022-09-03T11:36:28;24.70;53.90
20171;DHT22;10245;51.344;6.620;2022-09-03T11:38:53;24.80;53.90
20171;DHT22;10245;51.344;6.620;2022-09-03T11:41:25;24.90;53.60
20171;DHT22;10245;51.344;6.620;2022-09-03T11:43:49;25.00;53.70
20171;DHT22;10245;51.344;6.620;2022-09-03T11:46:27;25.00;54.10
20171;DHT22;10245;51.344;6.620;2022-09-03T11:48:54;24.80;54.20
20171;DHT22;10245;51.344;6.620;2022-09-03T11:51:33;25.00;54.70
20171;DHT22;10245;51.344;6.620;2022-09-03T11:54:00;24.90;55.20
20171;DHT22;10245;51.344;6.620;2022-09-03T11:56:26;24.80;54.10
20171;DHT22;10245;51.344;6.620;2022-09-03T11:59:14;24.90;55.80
20171;DHT22;10245;51.344;6.620;2022-09-03T12:01:42;24.90;55.70
20171;DHT22;10245;51.344;6.620;2022-09-03T12:04:07;25.00;54.70
20171;DHT22;10245;51.344;6.620;2022-09-03T12:09:54;25.20;53.70
20171;DHT22;10245;51.344;6.620;2022-09-03T12:15:59;25.50;51.70
20171;DHT22;10245;51.344;6.620;2022-09-03T12:18:34;25.50;52.70
20171;DHT22;10245;51.344;6.620;2022-09-03T12:21:03;25.60;53.10
20171;DHT22;10245;51.344;6.620;2022-09-03T12:23:31;25.50;53.10
20171;DHT22;10245;51.344;6.620;2022-09-03T12:25:58;25.50;53.00
20171;DHT22;10245;51.344;6.620;2022-09-03T12:28:27;25.60;53.90
20171;DHT22;10245;51.344;6.620;2022-09-03T12:30:52;25.30;53.10
20171;DHT22;10245;51.344;6.620;2022-09-03T12:33:17;25.20;53.00
20171;DHT22;10245;51.344;6.620;2022-09-03T12:35:41;25.40;53.00
20171;DHT22;10245;51.344;6.620;2022-09-03T12:38:23;25.30;52.00
20171;DHT22;10245;51.344;6.620;2022-09-03T12:40:47;25.30;51.30
20171;DHT22;10245;51.344;6.620;2022-09-03T12:43:32;25.20;51.70
20171;DHT22;10245;51.344;6.620;2022-09-03T12:46:00;25.20;52.70
20171;DHT22;10245;51.344;6.620;2022-09-03T12:48:32;25.20;53.00
20171;DHT22;10245;51.344;6.620;2022-09-03T12:51:01;25.20;52.60
20171;DHT22;10245;51.344;6.620;2022-09-03T12:53:46;25.20;52.80
20171;DHT22;10245;51.344;6.620;2022-09-03T12:56:11;25.40;54.40
20171;DHT22;10245;51.344;6.620;2022-09-03T12:58:45;25.40;53.70
20171;DHT22;10245;51.344;6.620;2022-09-03T13:01:15;25.40;54.30
20171;DHT22;10245;51.344;6.620;2022-09-03T13:03:46;25.50;54.40
20171;DHT22;10245;51.344;6.620;2022-09-03T13:06:12;25.40;54.00
20171;DHT22;10245;51.344;6.620;2022-09-03T13:08:43;25.40;56.40
20171;DHT22;10245;51.344;6.620;2022-09-03T13:11:08;25.80;53.40
20171;DHT22;10245;51.344;6.620;2022-09-03T13:13:36;25.70;53.50
20171;DHT22;10245;51.344;6.620;2022-09-03T13:16:34;25.60;51.90
20171;DHT22;10245;51.344;6.620;2022-09-03T13:19:15;25.60;52.00
20171;DHT22;10245;51.344;6.620;2022-09-03T13:21:49;25.90;53.40
20171;DHT22;10245;51.344;6.620;2022-09-03T13:24:30;25.70;53.70
20171;DHT22;10245;51.344;6.620;2022-09-03T13:27:09;25.70;53.60
20171;DHT22;10245;51.344;6.620;2022-09-03T13:29:51;25.70;53.00
20171;DHT22;10245;51.344;6.620;2022-09-03T13:32:35;25.80;53.40
20171;DHT22;10245;51.344;6.620;2022-09-03T13:35:07;25.80;54.10
20171;DHT22;10245;51.344;6.620;2022-09-03T13:37:37;25.80;53.90
20171;DHT22;10245;51.344;6.620;2022-09-03T13:40:13;26.00;52.10
20171;DHT22;10245;51.344;6.620;2022-09-03T13:42:41;26.00;53.30
20171;DHT22;10245;51.344;6.620;2022-09-03T13:45:22;25.90;53.40
20171;DHT22;10245;51.344;6.620;2022-09-03T13:47:59;26.00;53.40
20171;DHT22;10245;51.344;6.620;2022-09-03T13:50:47;26.00;53.80
20171;DHT22;10245;51.344;6.620;2022-09-03T13:53:30;26.00;53.70
20171;DHT22;10245;51.344;6.620;2022-09-03T13:56:03;26.10;52.70
20171;DHT22;10245;51.344;6.620;2022-09-03T13:58:40;26.10;53.40
20171;DHT22;10245;51.344;6.620;2022-09-03T14:01:12;26.00;55.00
20171;DHT22;10245;51.344;6.620;2022-09-03T14:03:45;25.80;54.00
20171;DHT22;10245;51.344;6.620;2022-09-03T14:06:19;26.10;53.60
20171;DHT22;10245;51.344;6.620;2022-09-03T14:08:58;26.20;52.90
20171;DHT22;10245;51.344;6.620;2022-09-03T14:11:31;26.20;52.80
20171;DHT22;10245;51.344;6.620;2022-09-03T14:14:12;26.20;53.00
20171;DHT22;10245;51.344;6.620;2022-09-03T14:16:45;26.20;53.00
20171;DHT22;10245;51.344;6.620;2022-09-03T14:19:16;26.10;52.60
20171;DHT22;10245;51.344;6.620;2022-09-03T14:21:46;26.40;52.30
20171;DHT22;10245;51.344;6.620;2022-09-03T14:24:17;26.50;52.20
20171;DHT22;10245;51.344;6.620;2022-09-03T14:26:53;26.40;52.00
20171;DHT22;10245;51.344;6.620;2022-09-03T14:29:20;26.20;53.50
20171;DHT22;10245;51.344;6.620;2022-09-03T14:32:18;26.10;54.40
20171;DHT22;10245;51.344;6.620;2022-09-03T14:34:59;26.10;53.20
20171;DHT22;10245;51.344;6.620;2022-09-03T14:37:48;26.00;54.50
20171;DHT22;10245;51.344;6.620;2022-09-03T14:40:28;26.30;52.40
20171;DHT22;10245;51.344;6.620;2022-09-03T14:43:02;26.60;52.50
20171;DHT22;10245;51.344;6.620;2022-09-03T14:45:55;26.60;53.10
20171;DHT22;10245;51.344;6.620;2022-09-03T14:48:43;26.40;51.60
20171;DHT22;10245;51.344;6.620;2022-09-03T14:51:25;26.30;54.20
20171;DHT22;10245;51.344;6.620;2022-09-03T14:54:35;26.40;52.50
20171;DHT22;10245;51.344;6.620;2022-09-03T14:57:37;26.40;52.80
20171;DHT22;10245;51.344;6.620;2022-09-03T15:00:13;26.50;52.00
20171;DHT22;10245;51.344;6.620;2022-09-03T15:02:56;26.90;51.80
20171;DHT22;10245;51.344;6.620;2022-09-03T15:05:46;26.80;51.80
20171;DHT22;10245;51.344;6.620;2022-09-03T15:08:26;26.60;51.50
20171;DHT22;10245;51.344;6.620;2022-09-03T15:11:04;26.70;50.50
20171;DHT22;10245;51.344;6.620;2022-09-03T15:13:46;27.00;50.80
20171;DHT22;10245;51.344;6.620;2022-09-03T15:16:28;26.60;51.80
20171;DHT22;10245;51.344;6.620;2022-09-03T15:19:14;26.60;52.00
20171;DHT22;10245;51.344;6.620;2022-09-03T15:22:06;26.60;52.30
20171;DHT22;10245;51.344;6.620;2022-09-03T15:24:46;26.70;51.60
20171;DHT22;10245;51.344;6.620;2022-09-03T15:27:36;26.80;52.40
20171;DHT22;10245;51.344;6.620;2022-09-03T15:30:16;26.70;52.00
20171;DHT22;10245;51.344;6.620;2022-09-03T15:32:51;26.70;51.70
20171;DHT22;10245;51.344;6.620;2022-09-03T15:35:37;26.60;51.50
20171;DHT22;10245;51.344;6.620;2022-09-03T15:38:19;26.80;52.00
20171;DHT22;10245;51.344;6.620;2022-09-03T15:40:51;26.60;51.30
20171;DHT22;10245;51.344;6.620;2022-09-03T15:43:18;26.40;51.40
20171;DHT22;10245;51.344;6.620;2022-09-03T15:45:51;26.40;51.40
20171;DHT22;10245;51.344;6.620;2022-09-03T15:48:27;26.60;51.60
20171;DHT22;10245;51.344;6.620;2022-09-03T15:51:04;26.40;50.40
20171;DHT22;10245;51.344;6.620;2022-09-03T15:53:36;26.50;51.40
20171;DHT22;10245;51.344;6.620;2022-09-03T15:56:10;26.70;50.50
20171;DHT22;10245;51.344;6.620;2022-09-03T15:58:47;26.80;49.60
20171;DHT22;10245;51.344;6.620;2022-09-03T16:04:10;26.60;51.50
20171;DHT22;10245;51.344;6.620;2022-09-03T16:06:52;26.80;50.90